AAL202 KPHL-KCLE
Flight info
| Callsign | AAL202 |
|---|---|
| Flight time | 0h 58m |
| Altitude | 28000 |
| Route | PTW SARAA RAV PSB UPPRR TRYBE4 |
| Aircraft | A319/M-SDE3FGHIRWY/LB1 |
Departure
| Time | 2026-05-05 02:13 |
|---|---|
| Airport | Philadelphia International Airport (KPHL) |
Arrival
| Time | 2026-05-05 03:11 |
|---|---|
| Airport | Cleveland Hopkins International Airport (KCLE) |
| Time | Latitude | Longitude | Altitude | Speed | Heading |
|---|---|---|---|---|---|
| 2026-05-05 01:49 | 39.87747 | -75.23747 | 24 ft | 0 kts | 31° |
| 2026-05-05 01:55 | 39.87743 | -75.23750 | 23 ft | 0 kts | 31° |
| 2026-05-05 02:01 | 39.87738 | -75.23754 | 22 ft | 4 kts | 33° |
| 2026-05-05 02:01 | 39.87717 | -75.23775 | 22 ft | 4 kts | 47° |
| 2026-05-05 02:01 | 39.87702 | -75.23803 | 22 ft | 4 kts | 75° |
| 2026-05-05 02:01 | 39.87702 | -75.23830 | 24 ft | 1 kts | 123° |
| 2026-05-05 02:08 | 39.87696 | -75.23818 | 22 ft | 6 kts | 123° |
| 2026-05-05 02:08 | 39.87668 | -75.23762 | 22 ft | 9 kts | 126° |
| 2026-05-05 02:08 | 39.87608 | -75.23698 | 22 ft | 13 kts | 147° |
| 2026-05-05 02:09 | 39.87533 | -75.23633 | 25 ft | 11 kts | 162° |
| 2026-05-05 02:09 | 39.87466 | -75.23684 | 23 ft | 13 kts | 226° |
| 2026-05-05 02:09 | 39.87396 | -75.23726 | 22 ft | 11 kts | 172° |
| 2026-05-05 02:09 | 39.87334 | -75.23726 | 23 ft | 11 kts | 188° |
| 2026-05-05 02:10 | 39.87249 | -75.23707 | 22 ft | 14 kts | 163° |
| 2026-05-05 02:10 | 39.87151 | -75.23670 | 22 ft | 14 kts | 163° |
| 2026-05-05 02:10 | 39.87058 | -75.23637 | 25 ft | 13 kts | 165° |
| 2026-05-05 02:10 | 39.86984 | -75.23584 | 22 ft | 12 kts | 103° |
| 2026-05-05 02:11 | 39.86976 | -75.23520 | 22 ft | 2 kts | 138° |
| 2026-05-05 02:11 | 39.86965 | -75.23515 | 22 ft | 0 kts | 161° |
| 2026-05-05 02:12 | 39.86926 | -75.23501 | 22 ft | 7 kts | 167° |
| 2026-05-05 02:12 | 39.86882 | -75.23530 | 24 ft | 9 kts | 236° |
| 2026-05-05 02:13 | 39.86858 | -75.23628 | 22 ft | 17 kts | 256° |
| 2026-05-05 02:13 | 39.86740 | -75.24217 | 24 ft | 118 kts | 255° |
| 2026-05-05 02:13 | 39.86467 | -75.25575 | 227 ft | 176 kts | 253° |
| 2026-05-05 02:13 | 39.86155 | -75.27170 | 1017 ft | 194 kts | 253° |
| 2026-05-05 02:14 | 39.85795 | -75.28990 | 1694 ft | 222 kts | 253° |
| 2026-05-05 02:14 | 39.85403 | -75.30975 | 2393 ft | 222 kts | 252° |
| 2026-05-05 02:14 | 39.85006 | -75.33014 | 3063 ft | 244 kts | 253° |
| 2026-05-05 02:14 | 39.84600 | -75.35187 | 3721 ft | 250 kts | 253° |
| 2026-05-05 02:15 | 39.84196 | -75.37399 | 4369 ft | 252 kts | 256° |
| 2026-05-05 02:15 | 39.84228 | -75.39701 | 5028 ft | 261 kts | 280° |
| 2026-05-05 02:15 | 39.85080 | -75.41810 | 5681 ft | 272 kts | 307° |
| 2026-05-05 02:15 | 39.86662 | -75.43200 | 6340 ft | 284 kts | 335° |
| 2026-05-05 02:16 | 39.88571 | -75.43923 | 6999 ft | 286 kts | 340° |
| 2026-05-05 02:16 | 39.90491 | -75.44598 | 7658 ft | 286 kts | 340° |
| 2026-05-05 02:16 | 39.92391 | -75.45262 | 8301 ft | 287 kts | 340° |
| 2026-05-05 02:16 | 39.94323 | -75.45940 | 8961 ft | 288 kts | 340° |
| 2026-05-05 02:17 | 39.96258 | -75.46629 | 9598 ft | 289 kts | 340° |
| 2026-05-05 02:17 | 39.98198 | -75.47325 | 10261 ft | 290 kts | 340° |
| 2026-05-05 02:17 | 40.00144 | -75.48026 | 10917 ft | 290 kts | 340° |
| 2026-05-05 02:17 | 40.02083 | -75.48726 | 11571 ft | 289 kts | 340° |
| 2026-05-05 02:18 | 40.04024 | -75.49428 | 12223 ft | 289 kts | 340° |
| 2026-05-05 02:18 | 40.05961 | -75.50130 | 12877 ft | 290 kts | 340° |
| 2026-05-05 02:18 | 40.07915 | -75.50840 | 13533 ft | 292 kts | 340° |
| 2026-05-05 02:18 | 40.09879 | -75.51554 | 14185 ft | 295 kts | 340° |
| 2026-05-05 02:19 | 40.11864 | -75.52273 | 14839 ft | 298 kts | 340° |
| 2026-05-05 02:19 | 40.13869 | -75.53000 | 15493 ft | 300 kts | 340° |
| 2026-05-05 02:19 | 40.15865 | -75.53723 | 16139 ft | 303 kts | 339° |
| 2026-05-05 02:19 | 40.17906 | -75.54464 | 16793 ft | 306 kts | 339° |
| 2026-05-05 02:20 | 40.19959 | -75.55242 | 17451 ft | 308 kts | 335° |
| 2026-05-05 02:20 | 40.21883 | -75.56436 | 18100 ft | 305 kts | 323° |
| 2026-05-05 02:20 | 40.23564 | -75.58108 | 18753 ft | 303 kts | 313° |
| 2026-05-05 02:20 | 40.24984 | -75.60150 | 19407 ft | 304 kts | 307° |
| 2026-05-05 02:21 | 40.26371 | -75.62255 | 20061 ft | 307 kts | 308° |
| 2026-05-05 02:21 | 40.27773 | -75.64374 | 20716 ft | 309 kts | 308° |
| 2026-05-05 02:21 | 40.29189 | -75.66507 | 21369 ft | 312 kts | 308° |
| 2026-05-05 02:21 | 40.30620 | -75.68660 | 22022 ft | 315 kts | 309° |
| 2026-05-05 02:22 | 40.32067 | -75.70836 | 22677 ft | 318 kts | 309° |
| 2026-05-05 02:22 | 40.33526 | -75.73033 | 23333 ft | 321 kts | 309° |
| 2026-05-05 02:22 | 40.34995 | -75.75246 | 23987 ft | 324 kts | 309° |
| 2026-05-05 02:22 | 40.36477 | -75.77485 | 24641 ft | 327 kts | 309° |
| 2026-05-05 02:23 | 40.37953 | -75.79721 | 25289 ft | 331 kts | 309° |
| 2026-05-05 02:23 | 40.39469 | -75.82017 | 25940 ft | 335 kts | 310° |
| 2026-05-05 02:23 | 40.41004 | -75.84341 | 26576 ft | 340 kts | 310° |
| 2026-05-05 02:23 | 40.42511 | -75.86757 | 27100 ft | 344 kts | 304° |
| 2026-05-05 02:24 | 40.43713 | -75.89486 | 27628 ft | 348 kts | 295° |
| 2026-05-05 02:24 | 40.44547 | -75.92488 | 27856 ft | 353 kts | 286° |
| 2026-05-05 02:24 | 40.45070 | -75.95646 | 27916 ft | 354 kts | 283° |
| 2026-05-05 02:24 | 40.45575 | -75.98807 | 27914 ft | 354 kts | 283° |
| 2026-05-05 02:25 | 40.46084 | -76.01962 | 27901 ft | 354 kts | 283° |
| 2026-05-05 02:25 | 40.46595 | -76.05125 | 27902 ft | 354 kts | 283° |
| 2026-05-05 02:25 | 40.47106 | -76.08288 | 27903 ft | 354 kts | 283° |
| 2026-05-05 02:25 | 40.47608 | -76.11410 | 27910 ft | 354 kts | 283° |
| 2026-05-05 02:26 | 40.48116 | -76.14573 | 27919 ft | 354 kts | 283° |
| 2026-05-05 02:26 | 40.48628 | -76.17739 | 27920 ft | 354 kts | 283° |
| 2026-05-05 02:26 | 40.49139 | -76.20905 | 27921 ft | 354 kts | 283° |
| 2026-05-05 02:26 | 40.49651 | -76.24069 | 27910 ft | 354 kts | 283° |
| 2026-05-05 02:27 | 40.50160 | -76.27235 | 27906 ft | 354 kts | 283° |
| 2026-05-05 02:27 | 40.50666 | -76.30397 | 27907 ft | 354 kts | 283° |
| 2026-05-05 02:27 | 40.51173 | -76.33583 | 27919 ft | 364 kts | 283° |
| 2026-05-05 02:27 | 40.51710 | -76.36939 | 27902 ft | 386 kts | 283° |
| 2026-05-05 02:28 | 40.52266 | -76.40415 | 27903 ft | 403 kts | 283° |
| 2026-05-05 02:28 | 40.52853 | -76.44096 | 27895 ft | 419 kts | 283° |
| 2026-05-05 02:28 | 40.53456 | -76.47903 | 27896 ft | 432 kts | 283° |
| 2026-05-05 02:28 | 40.54075 | -76.51822 | 27898 ft | 443 kts | 283° |
| 2026-05-05 02:29 | 40.54702 | -76.55816 | 27898 ft | 448 kts | 282° |
| 2026-05-05 02:29 | 40.55362 | -76.59834 | 27893 ft | 449 kts | 285° |
| 2026-05-05 02:29 | 40.56333 | -76.63734 | 27899 ft | 449 kts | 289° |
| 2026-05-05 02:29 | 40.57356 | -76.67617 | 27875 ft | 449 kts | 290° |
| 2026-05-05 02:30 | 40.58393 | -76.71487 | 27879 ft | 448 kts | 290° |
| 2026-05-05 02:30 | 40.59438 | -76.75352 | 27877 ft | 448 kts | 290° |
| 2026-05-05 02:30 | 40.60468 | -76.79164 | 27878 ft | 448 kts | 290° |
| 2026-05-05 02:30 | 40.61508 | -76.83028 | 27877 ft | 449 kts | 290° |
| 2026-05-05 02:31 | 40.62543 | -76.86905 | 27876 ft | 449 kts | 289° |
| 2026-05-05 02:31 | 40.63572 | -76.90786 | 27875 ft | 449 kts | 289° |
| 2026-05-05 02:31 | 40.64593 | -76.94664 | 27870 ft | 449 kts | 289° |
| 2026-05-05 02:31 | 40.65612 | -76.98548 | 27868 ft | 449 kts | 289° |
| 2026-05-05 02:32 | 40.66633 | -77.02435 | 27867 ft | 449 kts | 289° |
| 2026-05-05 02:32 | 40.67652 | -77.06314 | 27867 ft | 448 kts | 289° |
| 2026-05-05 02:32 | 40.68673 | -77.10203 | 27865 ft | 448 kts | 289° |
| 2026-05-05 02:32 | 40.69692 | -77.14078 | 27864 ft | 448 kts | 289° |
| 2026-05-05 02:33 | 40.70713 | -77.17967 | 27860 ft | 448 kts | 289° |
| 2026-05-05 02:33 | 40.71715 | -77.21790 | 27861 ft | 448 kts | 289° |
| 2026-05-05 02:33 | 40.72732 | -77.25674 | 27859 ft | 447 kts | 289° |
| 2026-05-05 02:33 | 40.73743 | -77.29546 | 27857 ft | 447 kts | 289° |
| 2026-05-05 02:34 | 40.74751 | -77.33428 | 27855 ft | 447 kts | 289° |
| 2026-05-05 02:34 | 40.75758 | -77.37315 | 27852 ft | 448 kts | 289° |
| 2026-05-05 02:34 | 40.76763 | -77.41204 | 27850 ft | 448 kts | 289° |
| 2026-05-05 02:34 | 40.77767 | -77.45088 | 27851 ft | 448 kts | 289° |
| 2026-05-05 02:35 | 40.78773 | -77.48987 | 27851 ft | 448 kts | 289° |
| 2026-05-05 02:35 | 40.79762 | -77.52829 | 27852 ft | 448 kts | 289° |
| 2026-05-05 02:35 | 40.80763 | -77.56724 | 27850 ft | 448 kts | 289° |
| 2026-05-05 02:35 | 40.81764 | -77.60609 | 27850 ft | 448 kts | 289° |
| 2026-05-05 02:36 | 40.82768 | -77.64509 | 27850 ft | 448 kts | 289° |
| 2026-05-05 02:36 | 40.83765 | -77.68401 | 27850 ft | 448 kts | 289° |
| 2026-05-05 02:36 | 40.84761 | -77.72296 | 27854 ft | 448 kts | 289° |
| 2026-05-05 02:36 | 40.85763 | -77.76201 | 27856 ft | 448 kts | 289° |
| 2026-05-05 02:37 | 40.86762 | -77.80096 | 27857 ft | 448 kts | 289° |
| 2026-05-05 02:37 | 40.87761 | -77.83998 | 27859 ft | 448 kts | 289° |
| 2026-05-05 02:37 | 40.88756 | -77.87906 | 27860 ft | 448 kts | 288° |
| 2026-05-05 02:37 | 40.89733 | -77.91761 | 27861 ft | 448 kts | 288° |
| 2026-05-05 02:38 | 40.90720 | -77.95663 | 27863 ft | 448 kts | 288° |
| 2026-05-05 02:38 | 40.91671 | -77.99579 | 27861 ft | 448 kts | 285° |
| 2026-05-05 02:38 | 40.92405 | -78.03580 | 27863 ft | 448 kts | 283° |
| 2026-05-05 02:38 | 40.93078 | -78.07598 | 27860 ft | 448 kts | 282° |
| 2026-05-05 02:39 | 40.93711 | -78.11631 | 27859 ft | 448 kts | 282° |
| 2026-05-05 02:39 | 40.94326 | -78.15664 | 27859 ft | 447 kts | 282° |
| 2026-05-05 02:39 | 40.94942 | -78.19692 | 27855 ft | 447 kts | 282° |
| 2026-05-05 02:39 | 40.95570 | -78.23723 | 27852 ft | 447 kts | 282° |
| 2026-05-05 02:40 | 40.96202 | -78.27695 | 27850 ft | 447 kts | 282° |
| 2026-05-05 02:40 | 40.96848 | -78.31705 | 27847 ft | 447 kts | 282° |
| 2026-05-05 02:40 | 40.97497 | -78.35731 | 27845 ft | 447 kts | 282° |
| 2026-05-05 02:40 | 40.98140 | -78.39746 | 27843 ft | 446 kts | 282° |
| 2026-05-05 02:41 | 40.98781 | -78.43764 | 27843 ft | 446 kts | 282° |
| 2026-05-05 02:41 | 40.99419 | -78.47787 | 27848 ft | 446 kts | 282° |
| 2026-05-05 02:41 | 41.00056 | -78.51804 | 27846 ft | 446 kts | 282° |
| 2026-05-05 02:41 | 41.00682 | -78.55767 | 27842 ft | 446 kts | 282° |
| 2026-05-05 02:42 | 41.01315 | -78.59780 | 27843 ft | 446 kts | 282° |
| 2026-05-05 02:42 | 41.01947 | -78.63797 | 27842 ft | 445 kts | 282° |
| 2026-05-05 02:42 | 41.02575 | -78.67807 | 27840 ft | 445 kts | 282° |
| 2026-05-05 02:42 | 41.03202 | -78.71825 | 27838 ft | 445 kts | 282° |
| 2026-05-05 02:43 | 41.03827 | -78.75843 | 27836 ft | 445 kts | 282° |
| 2026-05-05 02:43 | 41.04450 | -78.79861 | 27834 ft | 445 kts | 282° |
| 2026-05-05 02:43 | 41.05072 | -78.83881 | 27834 ft | 445 kts | 281° |
| 2026-05-05 02:43 | 41.05693 | -78.87898 | 27831 ft | 445 kts | 281° |
| 2026-05-05 02:44 | 41.06310 | -78.91922 | 27828 ft | 446 kts | 281° |
| 2026-05-05 02:44 | 41.06919 | -78.95893 | 27827 ft | 446 kts | 281° |
| 2026-05-05 02:44 | 41.07534 | -78.99915 | 27826 ft | 446 kts | 281° |
| 2026-05-05 02:44 | 41.08149 | -79.03944 | 27722 ft | 447 kts | 281° |
| 2026-05-05 02:45 | 41.08764 | -79.07978 | 27579 ft | 446 kts | 281° |
| 2026-05-05 02:45 | 41.09381 | -79.12001 | 27423 ft | 445 kts | 281° |
| 2026-05-05 02:45 | 41.09997 | -79.16023 | 27273 ft | 444 kts | 281° |
| 2026-05-05 02:45 | 41.10607 | -79.20023 | 27125 ft | 443 kts | 281° |
| 2026-05-05 02:46 | 41.11214 | -79.24024 | 26974 ft | 442 kts | 281° |
| 2026-05-05 02:46 | 41.11817 | -79.28021 | 26824 ft | 441 kts | 281° |
| 2026-05-05 02:46 | 41.12406 | -79.31946 | 26663 ft | 433 kts | 281° |
| 2026-05-05 02:46 | 41.12978 | -79.35745 | 26543 ft | 409 kts | 281° |
| 2026-05-05 02:47 | 41.13519 | -79.39347 | 26410 ft | 391 kts | 281° |
| 2026-05-05 02:47 | 41.14044 | -79.42848 | 26290 ft | 385 kts | 281° |
| 2026-05-05 02:47 | 41.14560 | -79.46317 | 26163 ft | 382 kts | 281° |
| 2026-05-05 02:47 | 41.15072 | -79.49773 | 26034 ft | 381 kts | 281° |
| 2026-05-05 02:48 | 41.15583 | -79.53221 | 25916 ft | 380 kts | 281° |
| 2026-05-05 02:48 | 41.16093 | -79.56657 | 25787 ft | 379 kts | 281° |
| 2026-05-05 02:48 | 41.16602 | -79.60091 | 25662 ft | 378 kts | 281° |
| 2026-05-05 02:48 | 41.17109 | -79.63511 | 25536 ft | 377 kts | 281° |
| 2026-05-05 02:49 | 41.17605 | -79.66880 | 25414 ft | 377 kts | 281° |
| 2026-05-05 02:49 | 41.18104 | -79.70286 | 25293 ft | 376 kts | 281° |
| 2026-05-05 02:49 | 41.18603 | -79.73686 | 25164 ft | 375 kts | 281° |
| 2026-05-05 02:49 | 41.19101 | -79.77086 | 25038 ft | 374 kts | 281° |
| 2026-05-05 02:50 | 41.19594 | -79.80471 | 24913 ft | 373 kts | 280° |
| 2026-05-05 02:50 | 41.20084 | -79.83845 | 24787 ft | 372 kts | 280° |
| 2026-05-05 02:50 | 41.20571 | -79.87218 | 24661 ft | 371 kts | 280° |
| 2026-05-05 02:50 | 41.21052 | -79.90548 | 24537 ft | 371 kts | 280° |
| 2026-05-05 02:51 | 41.21529 | -79.93858 | 24414 ft | 370 kts | 280° |
| 2026-05-05 02:51 | 41.22012 | -79.97208 | 24289 ft | 369 kts | 280° |
| 2026-05-05 02:51 | 41.22497 | -80.00559 | 24163 ft | 369 kts | 280° |
| 2026-05-05 02:51 | 41.22980 | -80.03896 | 24038 ft | 368 kts | 280° |
| 2026-05-05 02:52 | 41.23459 | -80.07236 | 23884 ft | 367 kts | 280° |
| 2026-05-05 02:52 | 41.23936 | -80.10565 | 23812 ft | 367 kts | 280° |
| 2026-05-05 02:52 | 41.24462 | -80.13879 | 23390 ft | 366 kts | 285° |
| 2026-05-05 02:52 | 41.25357 | -80.17029 | 22938 ft | 363 kts | 290° |
| 2026-05-05 02:53 | 41.26299 | -80.20135 | 22479 ft | 361 kts | 290° |
| 2026-05-05 02:53 | 41.27216 | -80.23175 | 22043 ft | 358 kts | 290° |
| 2026-05-05 02:53 | 41.28135 | -80.26243 | 21593 ft | 356 kts | 290° |
| 2026-05-05 02:53 | 41.29045 | -80.29290 | 21137 ft | 354 kts | 290° |
| 2026-05-05 02:54 | 41.29952 | -80.32318 | 20690 ft | 351 kts | 290° |
| 2026-05-05 02:54 | 41.30854 | -80.35323 | 20244 ft | 349 kts | 290° |
| 2026-05-05 02:54 | 41.31746 | -80.38307 | 19791 ft | 346 kts | 289° |
| 2026-05-05 02:54 | 41.32629 | -80.41270 | 19337 ft | 343 kts | 289° |
| 2026-05-05 02:55 | 41.33504 | -80.44211 | 18888 ft | 341 kts | 289° |
| 2026-05-05 02:55 | 41.34374 | -80.47134 | 18438 ft | 338 kts | 289° |
| 2026-05-05 02:55 | 41.35225 | -80.49997 | 17987 ft | 336 kts | 289° |
| 2026-05-05 02:55 | 41.36069 | -80.52841 | 17564 ft | 334 kts | 289° |
| 2026-05-05 02:56 | 41.36920 | -80.55711 | 17235 ft | 332 kts | 289° |
| 2026-05-05 02:56 | 41.37764 | -80.58566 | 16911 ft | 330 kts | 289° |
| 2026-05-05 02:56 | 41.38602 | -80.61398 | 16580 ft | 328 kts | 289° |
| 2026-05-05 02:56 | 41.39437 | -80.64219 | 16262 ft | 326 kts | 289° |
| 2026-05-05 02:57 | 41.40267 | -80.67021 | 16057 ft | 325 kts | 289° |
| 2026-05-05 02:57 | 41.41093 | -80.69815 | 16057 ft | 324 kts | 289° |
| 2026-05-05 02:57 | 41.41902 | -80.72576 | 16013 ft | 325 kts | 288° |
| 2026-05-05 02:57 | 41.42715 | -80.75358 | 15511 ft | 318 kts | 288° |
| 2026-05-05 02:58 | 41.43510 | -80.78069 | 15012 ft | 310 kts | 288° |
| 2026-05-05 02:58 | 41.44286 | -80.80709 | 14510 ft | 303 kts | 288° |
| 2026-05-05 02:58 | 41.45044 | -80.83293 | 14016 ft | 296 kts | 288° |
| 2026-05-05 02:58 | 41.45784 | -80.85821 | 13517 ft | 292 kts | 288° |
| 2026-05-05 02:59 | 41.46533 | -80.88402 | 13011 ft | 302 kts | 288° |
| 2026-05-05 02:59 | 41.47282 | -80.90991 | 12513 ft | 303 kts | 288° |
| 2026-05-05 02:59 | 41.48039 | -80.93603 | 12010 ft | 301 kts | 288° |
| 2026-05-05 02:59 | 41.48782 | -80.96161 | 11517 ft | 298 kts | 288° |
| 2026-05-05 03:00 | 41.49531 | -80.98736 | 11013 ft | 296 kts | 288° |
| 2026-05-05 03:00 | 41.50267 | -81.01254 | 10513 ft | 287 kts | 288° |
| 2026-05-05 03:00 | 41.50979 | -81.03698 | 10106 ft | 277 kts | 287° |
| 2026-05-05 03:00 | 41.51437 | -81.06103 | 10024 ft | 262 kts | 275° |
| 2026-05-05 03:01 | 41.51528 | -81.08517 | 9843 ft | 261 kts | 266° |
| 2026-05-05 03:01 | 41.51419 | -81.10917 | 9469 ft | 258 kts | 265° |
| 2026-05-05 03:01 | 41.51316 | -81.13298 | 9086 ft | 257 kts | 265° |
| 2026-05-05 03:01 | 41.51217 | -81.15648 | 8720 ft | 257 kts | 264° |
| 2026-05-05 03:02 | 41.51119 | -81.18017 | 8344 ft | 255 kts | 264° |
| 2026-05-05 03:02 | 41.51021 | -81.20368 | 7968 ft | 253 kts | 264° |
| 2026-05-05 03:02 | 41.50923 | -81.22707 | 7591 ft | 252 kts | 264° |
| 2026-05-05 03:02 | 41.50825 | -81.25037 | 7219 ft | 251 kts | 264° |
| 2026-05-05 03:03 | 41.50727 | -81.27351 | 7017 ft | 250 kts | 264° |
| 2026-05-05 03:03 | 41.50628 | -81.29662 | 6840 ft | 249 kts | 264° |
| 2026-05-05 03:03 | 41.50528 | -81.31973 | 6668 ft | 249 kts | 264° |
| 2026-05-05 03:03 | 41.50426 | -81.34270 | 6490 ft | 248 kts | 264° |
| 2026-05-05 03:04 | 41.50328 | -81.36501 | 6313 ft | 240 kts | 264° |
| 2026-05-05 03:04 | 41.50235 | -81.38704 | 6182 ft | 236 kts | 264° |
| 2026-05-05 03:04 | 41.50142 | -81.40886 | 6076 ft | 236 kts | 264° |
| 2026-05-05 03:04 | 41.50047 | -81.43069 | 6021 ft | 235 kts | 263° |
| 2026-05-05 03:05 | 41.49960 | -81.45239 | 6022 ft | 235 kts | 264° |
| 2026-05-05 03:05 | 41.49878 | -81.47417 | 6029 ft | 235 kts | 264° |
| 2026-05-05 03:05 | 41.49799 | -81.49600 | 5925 ft | 237 kts | 264° |
| 2026-05-05 03:05 | 41.49718 | -81.51778 | 5624 ft | 234 kts | 264° |
| 2026-05-05 03:06 | 41.49638 | -81.53942 | 5324 ft | 233 kts | 264° |
| 2026-05-05 03:06 | 41.49557 | -81.56097 | 5022 ft | 230 kts | 263° |
| 2026-05-05 03:06 | 41.49476 | -81.58174 | 4726 ft | 225 kts | 264° |
| 2026-05-05 03:06 | 41.49397 | -81.60242 | 4424 ft | 221 kts | 263° |
| 2026-05-05 03:07 | 41.49322 | -81.62265 | 4142 ft | 216 kts | 264° |
| 2026-05-05 03:07 | 41.49245 | -81.64240 | 3880 ft | 210 kts | 263° |
| 2026-05-05 03:07 | 41.49169 | -81.66156 | 3632 ft | 205 kts | 263° |
| 2026-05-05 03:07 | 41.49092 | -81.68039 | 3446 ft | 202 kts | 263° |
| 2026-05-05 03:08 | 41.49016 | -81.69912 | 3239 ft | 203 kts | 263° |
| 2026-05-05 03:08 | 41.48942 | -81.71762 | 3076 ft | 201 kts | 263° |
| 2026-05-05 03:08 | 41.48597 | -81.73543 | 2971 ft | 198 kts | 242° |
| 2026-05-05 03:08 | 41.47802 | -81.74981 | 2690 ft | 188 kts | 229° |
| 2026-05-05 03:09 | 41.46979 | -81.76280 | 2456 ft | 178 kts | 228° |
| 2026-05-05 03:09 | 41.46220 | -81.77481 | 2227 ft | 159 kts | 229° |
| 2026-05-05 03:09 | 41.45554 | -81.78536 | 2019 ft | 141 kts | 228° |
| 2026-05-05 03:09 | 41.44957 | -81.79483 | 1841 ft | 129 kts | 227° |
| 2026-05-05 03:10 | 41.44389 | -81.80383 | 1675 ft | 125 kts | 227° |
| 2026-05-05 03:10 | 41.43830 | -81.81268 | 1508 ft | 124 kts | 227° |
| 2026-05-05 03:10 | 41.43278 | -81.82147 | 1349 ft | 124 kts | 227° |
| 2026-05-05 03:10 | 41.42737 | -81.83019 | 1155 ft | 122 kts | 229° |
| 2026-05-05 03:11 | 41.42180 | -81.83873 | 999 ft | 126 kts | 228° |
| 2026-05-05 03:11 | 41.41634 | -81.84751 | 839 ft | 122 kts | 227° |
| 2026-05-05 03:11 | 41.41120 | -81.85561 | 782 ft | 97 kts | 229° |
| 2026-05-05 03:11 | 41.40798 | -81.86068 | 785 ft | 40 kts | 230° |
| 2026-05-05 03:12 | 41.40646 | -81.86248 | 784 ft | 27 kts | 202° |
| 2026-05-05 03:12 | 41.40544 | -81.86230 | 784 ft | 10 kts | 137° |
| 2026-05-05 03:12 | 41.40485 | -81.86160 | 783 ft | 13 kts | 139° |
| 2026-05-05 03:12 | 41.40436 | -81.86106 | 782 ft | 1 kts | 141° |
| 2026-05-05 03:13 | 41.40427 | -81.86096 | 782 ft | 0 kts | 141° |
| 2026-05-05 03:13 | 41.40397 | -81.86064 | 782 ft | 11 kts | 141° |
| 2026-05-05 03:14 | 41.40329 | -81.85992 | 783 ft | 13 kts | 141° |
| 2026-05-05 03:14 | 41.40309 | -81.85970 | 783 ft | 5 kts | 137° |
| 2026-05-05 03:14 | 41.40322 | -81.85891 | 783 ft | 12 kts | 49° |
| 2026-05-05 03:14 | 41.40384 | -81.85790 | 783 ft | 16 kts | 50° |
| 2026-05-05 03:15 | 41.40462 | -81.85665 | 783 ft | 19 kts | 50° |
| 2026-05-05 03:15 | 41.40556 | -81.85519 | 783 ft | 23 kts | 49° |
| 2026-05-05 03:15 | 41.40639 | -81.85385 | 783 ft | 16 kts | 60° |
| 2026-05-05 03:15 | 41.40650 | -81.85228 | 783 ft | 19 kts | 92° |
| 2026-05-05 03:16 | 41.40647 | -81.85107 | 783 ft | 21 kts | 92° |
| 2026-05-05 03:16 | 41.40634 | -81.84911 | 783 ft | 20 kts | 94° |
| 2026-05-05 03:16 | 41.40628 | -81.84786 | 783 ft | 11 kts | 93° |
| 2026-05-05 03:16 | 41.40624 | -81.84665 | 783 ft | 15 kts | 92° |
| 2026-05-05 03:17 | 41.40618 | -81.84509 | 783 ft | 17 kts | 94° |
| 2026-05-05 03:17 | 41.40638 | -81.84434 | 783 ft | 12 kts | 32° |
| 2026-05-05 03:17 | 41.40735 | -81.84432 | 783 ft | 16 kts | 359° |
| 2026-05-05 03:17 | 41.40832 | -81.84408 | 783 ft | 11 kts | 44° |
| 2026-05-05 03:18 | 41.40886 | -81.84312 | 783 ft | 15 kts | 41° |
| 2026-05-05 03:18 | 41.40908 | -81.84189 | 783 ft | 6 kts | 142° |
| 2026-05-05 03:18 | 41.40869 | -81.84143 | 783 ft | 5 kts | 135° |
| 2026-05-05 03:18 | 41.40859 | -81.84129 | 783 ft | 0 kts | 135° |